Dera Ismail Khan Weather



Dera Ismail Khan's Current Weather

Temprature 16.08o overcast clouds

overcast clouds

Rain: 0 %

Min Temprature16.08o
Max Temprature16.08o
Humidity55
Wind Speed3.94 m/h
Sun Rise07:13:00
Sun Set17:44:42
Current Time: 27-Jan-2020 18:27:35
Lat/Lon: 31.83, 70.9




Dera Ismail Khan's Geo Location



Dera Ismail Khan's Weather Forecast

Time Overall Temp Min Temp Max Temp Humidity Wind Speed Rain
27-Jan-2020 (Mon)
20:00:00 broken clouds 12.680 12.680 12.680 72 1.93 m/h 0 %
23:00:00 broken clouds 11.460 11.460 11.460 73 0.79 m/h 0 %
28-Jan-2020 (Tue)
02:00:00 broken clouds 10.910 10.910 10.910 64 2.2 m/h 0 %
05:00:00 broken clouds 11.600 11.600 11.600 59 3.27 m/h 0 %
08:00:00 scattered clouds 11.760 11.760 11.760 62 2.39 m/h 0 %
11:00:00 broken clouds 14.330 14.330 14.330 53 2.1 m/h 0 %
14:00:00 overcast clouds 18.130 18.130 18.130 38 1.76 m/h 0 %
17:00:00 broken clouds 17.440 17.440 17.440 39 2.42 m/h 0 %
20:00:00 broken clouds 12.580 12.580 12.580 74 3.63 m/h 0 %
23:00:00 scattered clouds 10.880 10.880 10.880 80 2.86 m/h 0 %
29-Jan-2020 (Wed)
02:00:00 clear sky 9.240 9.240 9.240 90 1.4 m/h 0 %
05:00:00 clear sky 8.290 8.290 8.290 91 1.04 m/h 0 %
08:00:00 clear sky 9.970 9.970 9.970 83 2.25 m/h 0 %
11:00:00 clear sky 14.930 14.930 14.930 28 3.17 m/h 0 %
14:00:00 clear sky 17.210 17.210 17.210 34 1.85 m/h 0 %
17:00:00 clear sky 16.650 16.650 16.650 35 2.18 m/h 0 %
20:00:00 clear sky 11.680 11.680 11.680 39 1.02 m/h 0 %
23:00:00 clear sky 10.890 10.890 10.890 64 2.78 m/h 0 %
30-Jan-2020 (Thu)
02:00:00 clear sky 9.530 9.530 9.530 62 1.82 m/h 0 %
05:00:00 clear sky 9.280 9.280 9.280 36 3.75 m/h 0 %
08:00:00 clear sky 9.410 9.410 9.410 35 3.66 m/h 0 %
11:00:00 scattered clouds 16.030 16.030 16.030 27 3.91 m/h 0 %
14:00:00 clear sky 18.560 18.560 18.560 25 3.09 m/h 0 %
17:00:00 clear sky 17.210 17.210 17.210 31 1.77 m/h 0 %
20:00:00 few clouds 12.730 12.730 12.730 33 1.67 m/h 0 %
23:00:00 few clouds 11.200 11.200 11.200 35 1.43 m/h 0 %
31-Jan-2020 (Fri)
02:00:00 clear sky 9.810 9.810 9.810 39 1.19 m/h 0 %
05:00:00 clear sky 8.610 8.610 8.610 45 0.99 m/h 0 %
08:00:00 broken clouds 10.930 10.930 10.930 44 1.83 m/h 0 %
11:00:00 overcast clouds 16.890 16.890 16.890 28 2.27 m/h 0 %
14:00:00 overcast clouds 18.950 18.950 18.950 22 1.78 m/h 0 %
17:00:00 scattered clouds 17.630 17.630 17.630 30 0.87 m/h 0 %
20:00:00 clear sky 11.810 11.810 11.810 34 0.41 m/h 0 %
23:00:00 clear sky 11.010 11.010 11.010 32 1.09 m/h 0 %
01-Feb-2020 (Sat)
02:00:00 clear sky 10.520 10.520 10.520 33 1.8 m/h 0 %
05:00:00 clear sky 10.580 10.580 10.580 28 3.57 m/h 0 %
08:00:00 clear sky 10.670 10.670 10.670 29 3.61 m/h 0 %
11:00:00 clear sky 18.060 18.060 18.060 20 3.7 m/h 0 %
14:00:00 clear sky 20.590 20.590 20.590 16 3.21 m/h 0 %
17:00:00 clear sky 18.690 18.690 18.690 21 2 m/h 0 %

Famous Cities (61)